Time;durP1;ratioP1;P1;durP2;ratioP2;P2;SDS_P1;SDS_P2;PMS_P1;PMS_P2;Temp;Humidity;BMP_temperature;BMP_pressure;BME280_temperature;BME280_humidity;BME280_pressure;Samples;Min_cycle;Max_cycle;Signal;HPM_P1;HPM_P2
2022/03/12 00:01:56;;;;;;;10.07;6.43;;;;;;;-0.54;82.41;95500.28;5052513;28;20618;-66
2022/03/12 00:04:22;;;;;;;10.90;6.70;;;;;;;-0.55;83.14;95493.31;5052264;28;20259;-66
2022/03/12 00:06:47;;;;;;;10.97;6.83;;;;;;;-0.58;82.80;95496.69;5052381;28;20198;-66
2022/03/12 00:09:12;;;;;;;9.43;6.87;;;;;;;-0.61;83.05;95497.34;5052410;28;20205;-65
2022/03/12 00:11:49;;;;;;;10.57;7.13;;;;;;;-0.64;83.25;95503.34;5052339;28;20189;-65
2022/03/12 00:14:15;;;;;;;9.90;6.43;;;;;;;-0.66;83.95;95495.66;5051888;28;20190;-63
2022/03/12 00:16:43;;;;;;;11.27;6.43;;;;;;;-0.69;84.34;95506.25;5052428;28;20202;-62
2022/03/12 00:19:10;;;;;;;10.63;7.03;;;;;;;-0.72;84.45;95501.53;5055340;28;20187;-63
2022/03/12 00:21:35;;;;;;;9.10;6.63;;;;;;;-0.73;85.11;95510.72;5056083;28;20209;-63
2022/03/12 00:24:02;;;;;;;11.13;6.87;;;;;;;-0.76;85.38;95509.44;5055619;28;20232;-63
2022/03/12 00:26:29;;;;;;;12.80;6.80;;;;;;;-0.75;85.49;95512.91;5055410;28;20197;-63
2022/03/12 00:28:55;;;;;;;11.43;6.97;;;;;;;-0.78;85.93;95513.56;5055410;28;20186;-63
2022/03/12 00:31:21;;;;;;;11.53;6.60;;;;;;;-0.82;85.69;95523.38;5055939;28;20194;-70
2022/03/12 00:33:47;;;;;;;11.00;6.50;;;;;;;-0.83;86.25;95516.47;5056719;28;20189;-71
2022/03/12 00:36:14;;;;;;;11.23;6.80;;;;;;;-0.85;86.53;95507.94;5055533;28;20182;-71
2022/03/12 00:38:39;;;;;;;9.87;6.47;;;;;;;-0.91;86.89;95510.03;5055318;28;20187;-72
2022/03/12 00:41:08;;;;;;;11.10;6.60;;;;;;;-0.93;86.78;95506.13;5055364;28;20205;-71
2022/03/12 00:43:34;;;;;;;12.17;7.60;;;;;;;-0.94;87.92;95507.25;5055192;28;20206;-71
2022/03/12 00:46:00;;;;;;;12.13;6.70;;;;;;;-0.98;88.64;95509.78;5055708;28;20201;-72
2022/03/12 00:48:25;;;;;;;12.70;6.43;;;;;;;-1.01;88.70;95525.75;5055499;28;20190;-71
2022/03/12 00:50:50;;;;;;;9.23;6.20;;;;;;;-1.04;89.13;95531.75;5055378;28;20196;-59
2022/03/12 00:53:16;;;;;;;10.30;6.87;;;;;;;-1.07;88.75;95538.53;5055107;28;20235;-52
2022/03/12 00:55:41;;;;;;;11.10;6.33;;;;;;;-1.08;88.55;95536.19;5055522;28;20174;-53
2022/03/12 00:58:07;;;;;;;11.17;6.47;;;;;;;-1.08;88.86;95525.47;5055013;28;20543;-51
2022/03/12 01:00:33;;;;;;;11.33;6.70;;;;;;;-1.15;89.09;95533.25;5055682;28;20217;-53
2022/03/12 01:02:58;;;;;;;10.00;6.77;;;;;;;-1.17;89.62;95532.78;5054833;28;20206;-55
2022/03/12 01:05:51;;;;;;;11.10;6.37;;;;;;;-1.20;89.21;95536.13;5055278;28;20187;-55
2022/03/12 01:08:18;;;;;;;12.70;6.27;;;;;;;-1.26;89.37;95534.72;5054752;28;20239;-55
2022/03/12 01:10:44;;;;;;;11.47;7.00;;;;;;;-1.29;89.99;95530.81;5055052;28;20293;-51
2022/03/12 01:13:13;;;;;;;9.80;6.33;;;;;;;-1.32;90.91;95530.66;5054900;28;20189;-52
2022/03/12 01:15:39;;;;;;;11.33;6.60;;;;;;;-1.33;91.02;95534.47;5054835;28;20256;-55
2022/03/12 01:18:11;;;;;;;11.03;6.47;;;;;;;-1.34;90.96;95538.25;5055000;28;20190;-52
2022/03/12 01:20:36;;;;;;;9.43;6.40;;;;;;;-1.36;91.13;95535.91;5055287;28;20193;-52
2022/03/12 01:23:02;;;;;;;12.10;6.90;;;;;;;-1.36;91.85;95527.84;5054794;28;20264;-54
2022/03/12 01:25:28;;;;;;;11.27;5.97;;;;;;;-1.37;91.71;95533.53;5055613;28;20228;-66
2022/03/12 01:27:53;;;;;;;11.17;5.90;;;;;;;-1.38;92.29;95521.28;5054622;28;20186;-59
2022/03/12 01:30:27;;;;;;;10.57;6.27;;;;;;;-1.42;92.82;95523.03;5054663;28;20197;-63
2022/03/12 01:32:53;;;;;;;11.47;6.70;;;;;;;-1.45;93.31;95526.34;5054719;28;20206;-63
2022/03/12 01:35:18;;;;;;;9.97;6.30;;;;;;;-1.46;94.48;95530.13;5054504;28;20197;-63
2022/03/12 01:37:44;;;;;;;10.90;6.87;;;;;;;-1.46;95.17;95524.78;5054914;28;20217;-63
2022/03/12 01:40:11;;;;;;;11.47;7.13;;;;;;;-1.48;95.07;95522.44;5054440;28;20185;-63
2022/03/12 01:42:37;;;;;;;10.17;6.33;;;;;;;-1.51;95.39;95523.06;5054210;28;20216;-63
2022/03/12 01:45:09;;;;;;;9.63;6.40;;;;;;;-1.50;95.43;95523.84;5054095;28;20663;-73
2022/03/12 01:47:35;;;;;;;11.17;6.63;;;;;;;-1.50;95.09;95529.97;5055121;28;20212;-51
2022/03/12 01:50:01;;;;;;;10.47;6.67;;;;;;;-1.51;94.97;95530.31;5054867;28;20272;-49
2022/03/12 01:52:28;;;;;;;10.93;6.87;;;;;;;-1.53;95.12;95529.84;5054396;28;20182;-49
2022/03/12 01:54:55;;;;;;;11.57;6.30;;;;;;;-1.56;96.17;95525.91;5054683;28;20186;-49
2022/03/12 01:57:20;;;;;;;11.63;6.50;;;;;;;-1.60;96.78;95513.53;5054287;28;20186;-55
2022/03/12 01:59:45;;;;;;;14.43;7.47;;;;;;;-1.63;97.60;95519.50;5054134;28;20186;-52
2022/03/12 02:02:13;;;;;;;10.63;6.60;;;;;;;-1.65;97.86;95519.03;5054139;28;20205;-66
2022/03/12 02:04:41;;;;;;;11.47;7.20;;;;;;;-1.67;98.42;95524.72;5054108;28;20173;-50
2022/03/12 02:07:07;;;;;;;10.80;6.90;;;;;;;-1.66;98.38;95520.16;5054118;28;20190;-53
2022/03/12 02:09:33;;;;;;;9.83;6.47;;;;;;;-1.69;98.53;95510.09;5053952;28;20192;-48
2022/03/12 02:11:58;;;;;;;10.43;6.93;;;;;;;-1.70;98.83;95520.03;5054502;28;20280;-50
2022/03/12 02:14:25;;;;;;;11.17;6.93;;;;;;;-1.72;98.83;95516.06;5053919;28;20181;-50
2022/03/12 02:16:58;;;;;;;11.70;7.30;;;;;;;-1.73;99.78;95514.53;5054487;28;20189;-50
2022/03/12 02:19:27;;;;;;;11.43;6.50;;;;;;;-1.73;99.92;95519.88;5054361;28;20182;-49
2022/03/12 02:21:54;;;;;;;11.07;6.73;;;;;;;-1.76;99.99;95515.94;5053947;28;20196;-60
2022/03/12 02:24:21;;;;;;;10.17;7.00;;;;;;;-1.77;100.00;95518.94;5053808;28;20251;-66
2022/03/12 02:26:47;;;;;;;12.47;7.10;;;;;;;-1.76;100.00;95515.16;5053841;28;20273;-66
2022/03/12 02:29:19;;;;;;;10.73;6.57;;;;;;;-1.78;100.00;95517.38;5053631;28;20201;-66
2022/03/12 02:31:52;;;;;;;10.30;6.20;;;;;;;-1.81;100.00;95515.34;5054114;28;20186;-66
2022/03/12 02:34:23;;;;;;;10.83;6.77;;;;;;;-1.84;100.00;95518.66;5053521;28;20185;-66
2022/03/12 02:36:51;;;;;;;11.70;6.70;;;;;;;-1.86;100.00;95516.31;5054340;28;20190;-65
2022/03/12 02:39:17;;;;;;;9.83;6.23;;;;;;;-1.86;100.00;95521.66;5054418;28;20174;-59
2022/03/12 02:41:43;;;;;;;11.43;6.70;;;;;;;-1.85;100.00;95517.09;5053048;28;20258;-71
2022/03/12 02:44:16;;;;;;;11.80;6.67;;;;;;;-1.85;100.00;95527.81;5053253;28;20264;-71
2022/03/12 02:46:42;;;;;;;11.70;6.20;;;;;;;-1.85;100.00;95533.16;5053890;28;20189;-71
2022/03/12 02:49:07;;;;;;;11.60;7.17;;;;;;;-1.88;100.00;95537.25;5053727;28;20177;-72
2022/03/12 02:51:34;;;;;;;11.30;6.43;;;;;;;-1.87;100.00;95541.50;5053263;28;20190;-71
2022/03/12 02:54:00;;;;;;;11.13;6.83;;;;;;;-1.88;100.00;95537.25;5053227;28;20190;-71
2022/03/12 02:56:28;;;;;;;11.83;7.20;;;;;;;-1.90;100.00;95542.13;5053613;28;20186;-71
2022/03/12 02:58:54;;;;;;;12.13;6.80;;;;;;;-1.90;100.00;95536.00;5053466;28;20181;-48
2022/03/12 03:01:22;;;;;;;11.83;6.43;;;;;;;-1.93;100.00;95540.09;5053196;28;20189;-63
2022/03/12 03:03:47;;;;;;;10.20;6.63;;;;;;;-1.91;100.00;95539.78;5053083;28;20206;-63
2022/03/12 03:06:14;;;;;;;11.50;6.90;;;;;;;-1.89;100.00;95548.28;5052900;28;20184;-64
2022/03/12 03:08:40;;;;;;;9.33;6.57;;;;;;;-1.92;100.00;95538.22;5053277;28;20251;-63
2022/03/12 03:11:14;;;;;;;12.70;6.60;;;;;;;-1.93;100.00;95537.41;5053609;28;20181;-64
2022/03/12 03:13:42;;;;;;;11.60;6.40;;;;;;;-1.92;100.00;95533.66;5053553;28;20196;-63
2022/03/12 03:16:20;;;;;;;10.03;6.37;;;;;;;-1.93;100.00;95547.34;5052749;28;20188;-50
2022/03/12 03:18:50;;;;;;;11.83;6.83;;;;;;;-1.96;100.00;95547.97;5053506;28;20257;-48
2022/03/12 03:21:18;;;;;;;15.10;7.00;;;;;;;-1.96;100.00;95537.28;5053351;28;20185;-49
2022/03/12 03:23:47;;;;;;;11.90;6.90;;;;;;;-1.94;100.00;95545.75;5052675;28;20291;-49
2022/03/12 03:26:14;;;;;;;10.70;6.67;;;;;;;-1.93;100.00;95544.69;5054071;28;20538;-47
2022/03/12 03:28:43;;;;;;;10.53;6.97;;;;;;;-1.98;100.00;95542.16;5052866;28;20217;-48
2022/03/12 03:31:08;;;;;;;11.70;6.47;;;;;;;-2.01;100.00;95540.16;5052825;28;20185;-48
2022/03/12 03:33:34;;;;;;;12.50;6.70;;;;;;;-2.07;100.00;95552.13;5052909;28;20182;-48
2022/03/12 03:35:59;;;;;;;12.10;7.20;;;;;;;-2.11;100.00;95545.84;5053836;28;20189;-48
2022/03/12 03:38:25;;;;;;;10.90;6.53;;;;;;;-2.13;100.00;95543.47;5053203;28;20178;-65
2022/03/12 03:40:51;;;;;;;13.33;7.47;;;;;;;-2.15;100.00;95550.25;5052859;28;20194;-65
2022/03/12 03:43:22;;;;;;;13.77;7.23;;;;;;;-2.14;100.00;95557.16;5052464;28;20205;-66
2022/03/12 03:45:50;;;;;;;11.17;6.47;;;;;;;-2.16;100.00;95557.47;5052778;28;20655;-65
2022/03/12 03:48:22;;;;;;;11.07;6.50;;;;;;;-2.17;100.00;95560.47;5052826;28;20186;-65
2022/03/12 03:50:49;;;;;;;12.10;7.10;;;;;;;-2.17;100.00;95568.50;5053108;28;20681;-65
2022/03/12 03:53:21;;;;;;;12.10;7.10;;;;;;;-2.16;100.00;95567.38;5051447;28;20186;-62
2022/03/12 03:55:47;;;;;;;11.93;7.23;;;;;;;-2.17;100.00;95563.13;5053351;28;20190;-52
2022/03/12 03:58:14;;;;;;;10.73;7.07;;;;;;;-2.17;100.00;95563.13;5052889;28;20193;-54
2022/03/12 04:00:44;;;;;;;15.73;7.30;;;;;;;-2.15;100.00;95560.94;5053039;28;20193;-54
2022/03/12 04:03:11;;;;;;;12.60;7.53;;;;;;;-2.14;100.00;95555.28;5052756;28;20240;-55
2022/03/12 04:05:38;;;;;;;10.87;7.00;;;;;;;-2.15;100.00;95555.59;5052476;28;20174;-53
2022/03/12 04:08:06;;;;;;;13.30;6.80;;;;;;;-2.18;100.00;95553.56;5052371;28;20182;-55
2022/03/12 04:10:33;;;;;;;11.83;6.53;;;;;;;-2.22;100.00;95550.72;5052842;28;20181;-55
2022/03/12 04:12:58;;;;;;;20.33;11.60;;;;;;;-2.23;100.00;95556.41;5052403;28;20186;-63
2022/03/12 04:15:25;;;;;;;13.17;8.40;;;;;;;-2.25;100.00;95555.94;5052650;28;20178;-50
2022/03/12 04:17:51;;;;;;;13.53;8.27;;;;;;;-2.26;100.00;95554.38;5052430;28;20590;-49
2022/03/12 04:20:18;;;;;;;18.03;9.67;;;;;;;-2.27;100.00;95547.44;5052357;28;20181;-48
2022/03/12 04:22:45;;;;;;;16.67;10.07;;;;;;;-2.28;100.00;95546.66;5052146;28;20198;-50
2022/03/12 04:25:12;;;;;;;16.00;9.20;;;;;;;-2.31;100.00;95551.84;5052269;28;20190;-52
2022/03/12 04:27:38;;;;;;;16.40;9.07;;;;;;;-2.33;100.00;95554.06;5052279;28;20617;-49
2022/03/12 04:30:05;;;;;;;11.80;7.37;;;;;;;-2.34;100.00;95555.19;5052476;28;20216;-47
2022/03/12 04:32:31;;;;;;;12.80;7.40;;;;;;;-2.33;100.00;95551.41;5052544;28;20220;-65
2022/03/12 04:34:56;;;;;;;11.80;7.40;;;;;;;-2.31;100.00;95552.63;5052536;28;20182;-65
2022/03/12 04:37:22;;;;;;;14.07;8.00;;;;;;;-2.28;100.00;95551.22;5052064;28;20182;-65
2022/03/12 04:39:49;;;;;;;11.13;7.00;;;;;;;-2.25;100.00;95555.94;5051970;28;20239;-65
2022/03/12 04:42:18;;;;;;;11.97;7.10;;;;;;;-2.23;100.00;95545.72;5051747;28;20244;-65
2022/03/12 04:44:43;;;;;;;15.03;7.67;;;;;;;-2.20;100.00;95547.72;5051889;28;20682;-64
2022/03/12 04:47:10;;;;;;;15.67;7.30;;;;;;;-2.17;100.00;95541.75;5051864;28;20186;-66
2022/03/12 04:49:35;;;;;;;13.43;7.30;;;;;;;-2.19;100.00;95558.09;5051744;28;20320;-50
2022/03/12 04:52:01;;;;;;;10.83;7.40;;;;;;;-2.16;100.00;95557.47;5052481;28;20225;-65
2022/03/12 04:54:32;;;;;;;13.37;7.57;;;;;;;-2.16;100.00;95560.16;5051637;28;20208;-65
2022/03/12 04:56:58;;;;;;;12.47;7.53;;;;;;;-2.16;100.00;95554.00;5051624;28;20188;-65
2022/03/12 04:59:23;;;;;;;11.17;7.47;;;;;;;-2.15;100.00;95558.28;5051636;28;20276;-66
2022/03/12 05:01:48;;;;;;;12.50;7.45;;;;;;;-2.16;100.00;95560.16;5051526;28;20255;-65
2022/03/12 05:04:15;;;;;;;11.80;7.50;;;;;;;-2.14;100.00;95557.97;5053707;28;20189;-66
2022/03/12 05:06:40;;;;;;;12.60;7.43;;;;;;;-2.12;100.00;95565.66;5055491;28;20193;-57
2022/03/12 05:09:06;;;;;;;12.37;7.30;;;;;;;-2.12;100.00;95571.78;5055117;28;20182;-53
2022/03/12 05:11:36;;;;;;;10.53;6.83;;;;;;;-2.11;100.00;95564.56;5055134;28;20193;-51
2022/03/12 05:14:02;;;;;;;11.57;7.43;;;;;;;-2.12;100.00;95571.00;5055148;28;20185;-47
2022/03/12 05:16:28;;;;;;;11.03;7.30;;;;;;;-2.15;100.00;95574.31;5054863;28;20185;-53
2022/03/12 05:18:56;;;;;;;11.10;6.87;;;;;;;-2.15;100.00;95566.28;5055122;28;20193;-48
2022/03/12 05:21:21;;;;;;;11.80;6.90;;;;;;;-2.11;100.00;95575.25;5055293;28;20277;-50
2022/03/12 05:23:46;;;;;;;10.80;7.17;;;;;;;-2.07;100.00;95573.50;5055307;28;20252;-48
2022/03/12 05:26:12;;;;;;;12.57;6.97;;;;;;;-2.03;100.00;95579.78;5055343;28;20190;-60
2022/03/12 05:28:39;;;;;;;11.30;7.33;;;;;;;-2.00;100.00;95587.19;5054902;28;20185;-59
2022/03/12 05:31:05;;;;;;;11.10;6.53;;;;;;;-1.96;100.00;95580.09;5054671;28;20185;-61
2022/03/12 05:33:31;;;;;;;11.87;7.50;;;;;;;-1.97;100.00;95589.22;5054712;28;20246;-60
2022/03/12 05:35:56;;;;;;;12.40;6.80;;;;;;;-1.96;100.00;95585.44;5054690;28;20182;-60
2022/03/12 05:38:23;;;;;;;12.53;6.97;;;;;;;-1.95;100.00;95581.66;5055050;28;20208;-59
2022/03/12 05:40:49;;;;;;;12.43;6.67;;;;;;;-1.90;100.00;95589.50;5054558;28;20186;-60
2022/03/12 05:43:16;;;;;;;12.47;6.80;;;;;;;-1.79;100.00;95585.38;5054067;28;20209;-53
2022/03/12 05:45:46;;;;;;;10.73;7.33;;;;;;;-1.63;100.00;95583.75;5054580;28;20244;-55
2022/03/12 05:48:14;;;;;;;11.93;7.40;;;;;;;-1.43;100.00;95599.06;5054400;28;20186;-53
2022/03/12 05:50:40;;;;;;;11.50;7.33;;;;;;;-1.22;100.00;95594.56;5054902;28;20192;-54
2022/03/12 05:53:09;;;;;;;12.67;7.07;;;;;;;-0.96;100.00;95595.19;5054177;28;20220;-54
2022/03/12 05:55:38;;;;;;;12.33;7.03;;;;;;;-0.67;100.00;95595.16;5054280;28;20186;-56
2022/03/12 05:58:04;;;;;;;14.87;8.60;;;;;;;-0.31;97.83;95600.69;5054242;28;20186;-55
2022/03/12 06:00:30;;;;;;;12.03;6.80;;;;;;;-0.21;93.42;95602.97;5054353;28;20194;-50
2022/03/12 06:02:56;;;;;;;11.00;6.80;;;;;;;-0.23;92.05;95603.31;5054300;28;20238;-61
2022/03/12 06:05:26;;;;;;;12.37;7.30;;;;;;;-0.38;92.26;95608.47;5055209;28;20267;-58
2022/03/12 06:07:53;;;;;;;13.13;7.50;;;;;;;-0.38;92.31;95608.47;5054119;28;20182;-60
2022/03/12 06:10:22;;;;;;;12.67;7.60;;;;;;;-0.46;93.26;95612.03;5053906;28;20190;-60
2022/03/12 06:12:48;;;;;;;11.93;7.00;;;;;;;-0.55;93.45;95619.34;5054069;28;20183;-59
2022/03/12 06:15:16;;;;;;;14.17;8.93;;;;;;;-0.50;94.74;95617.25;5052782;28;20681;-60
2022/03/12 06:17:42;;;;;;;14.43;7.67;;;;;;;-0.42;94.87;95618.31;5053934;28;20199;-60
2022/03/12 06:20:10;;;;;;;12.73;7.70;;;;;;;-0.36;94.01;95619.69;5053962;28;20223;-50
2022/03/12 06:22:36;;;;;;;11.63;7.40;;;;;;;-0.24;93.56;95625.09;5053940;28;20262;-52
2022/03/12 06:25:02;;;;;;;10.03;7.10;;;;;;;-0.08;92.56;95618.00;5053401;28;20201;-47
2022/03/12 06:27:28;;;;;;;14.80;7.43;;;;;;;0.20;93.05;95626.25;5054146;28;20199;-47
2022/03/12 06:29:56;;;;;;;10.83;8.10;;;;;;;0.47;90.49;95628.34;5053662;28;20207;-45
2022/03/12 06:32:21;;;;;;;14.17;7.53;;;;;;;0.91;87.75;95630.94;5053709;28;20201;-44
2022/03/12 06:34:47;;;;;;;11.77;7.93;;;;;;;1.41;84.10;95631.38;5053582;28;20189;-49
2022/03/12 06:37:13;;;;;;;16.30;7.87;;;;;;;1.95;80.46;95635.25;5053686;28;20200;-49
2022/03/12 06:39:38;;;;;;;10.77;7.73;;;;;;;2.35;76.71;95632.50;5054198;28;20232;-61
2022/03/12 06:42:04;;;;;;;14.40;8.27;;;;;;;2.85;74.88;95630.72;5053292;28;20243;-60
2022/03/12 06:44:32;;;;;;;12.77;8.37;;;;;;;3.47;72.08;95624.50;5053909;28;20277;-60
2022/03/12 06:47:00;;;;;;;13.60;8.80;;;;;;;3.69;68.92;95631.13;5053744;28;20331;-60
2022/03/12 06:49:26;;;;;;;12.80;8.67;;;;;;;4.09;68.32;95634.28;5053241;28;20222;-61
2022/03/12 06:51:52;;;;;;;14.27;9.83;;;;;;;4.44;64.91;95637.69;5053756;28;20229;-60
2022/03/12 06:54:18;;;;;;;12.80;8.80;;;;;;;4.72;63.23;95632.78;5053161;28;20186;-60
2022/03/12 06:56:43;;;;;;;12.63;8.47;;;;;;;5.04;62.90;95642.22;5053538;28;20189;-52
2022/03/12 06:59:08;;;;;;;12.90;8.87;;;;;;;5.17;60.05;95635.50;5053091;28;20185;-50
2022/03/12 07:01:34;;;;;;;12.83;9.63;;;;;;;5.43;59.15;95638.22;5053565;28;20212;-47
2022/03/12 07:03:59;;;;;;;12.37;9.30;;;;;;;5.69;58.36;95638.97;5053533;28;20278;-48
2022/03/12 07:06:24;;;;;;;12.50;8.67;;;;;;;6.07;56.40;95637.97;5053701;28;20190;-47
2022/03/12 07:08:50;;;;;;;12.00;9.47;;;;;;;6.50;54.84;95640.06;5052968;28;20271;-48
2022/03/12 07:11:16;;;;;;;12.47;9.60;;;;;;;6.36;54.38;95646.09;5053111;28;20549;-47
2022/03/12 07:13:42;;;;;;;12.93;8.47;;;;;;;6.60;52.82;95647.53;5052773;28;20635;-47
2022/03/12 07:16:08;;;;;;;13.33;9.17;;;;;;;6.99;52.16;95643.28;5053630;28;20189;-57
2022/03/12 07:18:33;;;;;;;12.37;9.23;;;;;;;6.92;51.99;95647.88;5053077;28;20183;-61
2022/03/12 07:20:59;;;;;;;11.43;9.00;;;;;;;7.26;51.15;95641.97;5054149;28;20186;-60
2022/03/12 07:23:24;;;;;;;12.27;8.67;;;;;;;7.61;50.63;95636.03;5052675;28;20233;-60
2022/03/12 07:25:52;;;;;;;13.73;8.73;;;;;;;7.67;49.28;95631.78;5053101;28;20184;-60
2022/03/12 07:28:19;;;;;;;11.87;8.97;;;;;;;7.55;49.34;95630.19;5053075;28;20225;-60
2022/03/12 07:30:45;;;;;;;12.47;8.73;;;;;;;8.20;48.66;95636.38;5052859;28;20211;-60
2022/03/12 07:33:11;;;;;;;13.10;9.10;;;;;;;8.95;46.59;95628.09;5052910;28;20186;-48
2022/03/12 07:35:37;;;;;;;12.67;9.07;;;;;;;9.47;44.84;95629.31;5053858;28;20238;-59
2022/03/12 07:38:04;;;;;;;10.87;9.10;;;;;;;9.02;44.62;95636.28;5052604;28;20228;-60
2022/03/12 07:40:30;;;;;;;13.57;9.63;;;;;;;9.28;44.75;95633.19;5052647;28;20192;-60
2022/03/12 07:42:55;;;;;;;12.33;8.83;;;;;;;9.60;43.72;95636.72;5052188;28;20206;-60
2022/03/12 07:45:21;;;;;;;12.77;8.97;;;;;;;10.31;43.22;95631.13;5052615;28;20181;-59
2022/03/12 07:47:47;;;;;;;12.07;9.20;;;;;;;11.17;41.70;95633.81;5052547;28;20194;-59
2022/03/12 07:50:13;;;;;;;13.73;9.53;;;;;;;11.54;40.12;95633.94;5052470;28;20195;-61
2022/03/12 07:52:39;;;;;;;18.10;13.03;;;;;;;11.81;39.80;95621.22;5052835;28;20193;-47
2022/03/12 07:55:07;;;;;;;13.90;10.73;;;;;;;12.35;38.82;95623.00;5052779;28;20189;-50
2022/03/12 07:57:33;;;;;;;11.43;9.80;;;;;;;13.31;36.78;95618.63;5052505;28;20185;-46
2022/03/12 07:59:59;;;;;;;17.23;10.20;;;;;;;13.68;35.88;95615.69;5052977;28;20181;-49
2022/03/12 08:02:24;;;;;;;12.80;9.77;;;;;;;14.38;34.67;95622.69;5052195;28;20218;-47
2022/03/12 08:04:49;;;;;;;15.00;11.43;;;;;;;14.22;34.84;95619.84;5052537;28;20227;-47
2022/03/12 08:07:15;;;;;;;13.70;10.63;;;;;;;14.36;35.61;95625.09;5052641;28;20209;-47
2022/03/12 08:09:40;;;;;;;12.97;10.03;;;;;;;14.91;33.87;95621.63;5052402;28;20182;-52
2022/03/12 08:12:06;;;;;;;15.13;11.40;;;;;;;15.00;33.79;95621.78;5052336;28;20189;-59
2022/03/12 08:14:32;;;;;;;12.40;10.97;;;;;;;15.05;33.61;95621.31;5052276;28;20178;-50
2022/03/12 08:16:58;;;;;;;15.13;10.80;;;;;;;15.11;33.09;95625.88;5051993;28;20190;-48
2022/03/12 08:19:24;;;;;;;16.27;10.97;;;;;;;15.73;32.63;95622.09;5052293;28;20184;-46
2022/03/12 08:21:51;;;;;;;15.00;11.80;;;;;;;15.81;31.54;95618.75;5051916;28;20284;-46
2022/03/12 08:24:17;;;;;;;15.63;11.43;;;;;;;16.13;31.79;95617.94;5052048;28;20201;-47
2022/03/12 08:26:44;;;;;;;14.90;12.90;;;;;;;15.99;32.52;95623.84;5052087;28;20189;-57
2022/03/12 08:29:10;;;;;;;15.87;12.60;;;;;;;16.28;32.53;95610.84;5052046;28;20209;-50
2022/03/12 08:31:38;;;;;;;15.57;12.07;;;;;;;16.76;32.51;95607.97;5052121;28;20192;-54
2022/03/12 08:34:04;;;;;;;18.50;12.40;;;;;;;16.04;32.03;95610.31;5052069;28;20177;-54
2022/03/12 08:36:29;;;;;;;18.20;12.97;;;;;;;14.99;33.54;95623.78;5052006;28;20186;-55
2022/03/12 08:38:54;;;;;;;15.03;12.80;;;;;;;15.40;34.63;95621.31;5053123;28;20189;-58
2022/03/12 08:41:21;;;;;;;17.73;13.33;;;;;;;17.02;34.02;95617.06;5055883;28;20193;-54
2022/03/12 08:43:47;;;;;;;18.50;14.23;;;;;;;16.76;31.93;95616.25;5055872;28;20247;-54
2022/03/12 08:46:12;;;;;;;16.00;13.37;;;;;;;17.77;29.86;95606.09;5055855;28;20182;-61
2022/03/12 08:48:39;;;;;;;17.50;13.90;;;;;;;17.47;30.03;95603.88;5055635;28;20236;-47
2022/03/12 08:51:05;;;;;;;20.20;15.63;;;;;;;17.61;30.35;95611.72;5055383;28;20216;-61
2022/03/12 08:53:31;;;;;;;16.43;14.53;;;;;;;17.36;30.58;95614.44;5072810;28;20209;-60
2022/03/12 08:55:57;;;;;;;18.83;13.73;;;;;;;17.33;31.82;95613.34;5055178;28;20269;-60
2022/03/12 08:58:23;;;;;;;16.60;14.43;;;;;;;17.35;30.41;95612.91;5055279;28;20253;-63
2022/03/12 09:00:52;;;;;;;18.60;14.03;;;;;;;17.21;30.91;95607.81;5055340;28;20189;-62
2022/03/12 09:03:18;;;;;;;16.47;13.97;;;;;;;17.15;30.64;95615.88;5055199;28;20232;-62
2022/03/12 09:05:44;;;;;;;17.50;14.03;;;;;;;17.55;30.71;95613.50;5055388;28;20193;-57
2022/03/12 09:08:10;;;;;;;15.97;14.13;;;;;;;17.30;30.45;95613.47;5055048;28;20186;-51
2022/03/12 09:10:36;;;;;;;16.77;14.17;;;;;;;18.15;30.03;95610.31;5054924;28;20197;-50
2022/03/12 09:13:01;;;;;;;18.50;16.47;;;;;;;17.81;29.83;95615.78;5055003;28;20181;-49
2022/03/12 09:15:26;;;;;;;19.80;16.13;;;;;;;18.09;30.42;95614.06;5055051;28;20269;-49
2022/03/12 09:17:52;;;;;;;18.17;14.77;;;;;;;18.00;30.74;95606.50;5055238;28;20243;-51
2022/03/12 09:20:18;;;;;;;18.00;14.70;;;;;;;18.61;29.61;95612.25;5054957;28;20196;-47
2022/03/12 09:22:43;;;;;;;22.83;19.00;;;;;;;19.03;29.67;95602.41;5054565;28;20205;-48
2022/03/12 09:25:11;;;;;;;18.23;15.23;;;;;;;18.45;29.71;95608.91;5054601;28;20197;-58
2022/03/12 09:27:36;;;;;;;16.50;14.63;;;;;;;18.42;28.79;95609.78;5055332;28;20178;-48
2022/03/12 09:30:03;;;;;;;18.57;15.40;;;;;;;17.74;29.55;95604.97;5054502;28;20189;-46
2022/03/12 09:32:28;;;;;;;20.07;15.17;;;;;;;18.12;28.92;95604.91;5054375;28;20185;-48
2022/03/12 09:34:53;;;;;;;17.53;14.77;;;;;;;17.65;29.12;95604.09;5054706;28;20182;-46
2022/03/12 09:37:19;;;;;;;16.20;14.50;;;;;;;17.65;29.52;95612.38;5054018;28;20178;-45
2022/03/12 09:39:45;;;;;;;17.67;14.80;;;;;;;17.71;29.27;95607.84;5054380;28;20190;-45
2022/03/12 09:42:10;;;;;;;17.77;15.47;;;;;;;17.62;29.41;95610.50;5053982;28;20198;-58
2022/03/12 09:44:36;;;;;;;19.23;15.00;;;;;;;17.76;29.79;95607.28;5053692;28;20221;-47
2022/03/12 09:47:01;;;;;;;18.37;15.43;;;;;;;15.90;31.24;95610.66;5053664;28;20185;-48
2022/03/12 09:49:27;;;;;;;18.83;14.60;;;;;;;16.66;30.17;95608.25;5053079;28;20197;-44
2022/03/12 09:51:52;;;;;;;18.53;15.30;;;;;;;15.20;31.65;95603.28;5052400;28;20205;-46
2022/03/12 09:54:18;;;;;;;18.20;14.77;;;;;;;16.13;30.94;95612.44;5053980;28;20190;-47
2022/03/12 09:56:45;;;;;;;22.40;18.63;;;;;;;16.99;30.51;95606.91;5054598;28;20189;-47
2022/03/12 09:59:10;;;;;;;21.73;17.53;;;;;;;16.88;31.05;95601.72;5055140;28;20190;-48
2022/03/12 10:01:36;;;;;;;20.53;14.57;;;;;;;17.42;30.63;95596.94;5054003;28;20189;-61
2022/03/12 10:04:01;;;;;;;26.17;18.07;;;;;;;17.40;30.05;95598.53;5054121;28;20220;-61
2022/03/12 10:06:30;;;;;;;17.40;14.53;;;;;;;16.50;30.94;95591.78;5053968;28;20277;-59
2022/03/12 10:08:56;;;;;;;17.40;14.43;;;;;;;15.49;31.42;95598.72;5052624;28;20292;-64
2022/03/12 10:11:22;;;;;;;15.67;13.77;;;;;;;15.89;32.82;95598.06;5054428;28;20194;-64
2022/03/12 10:13:47;;;;;;;18.00;13.83;;;;;;;15.89;34.27;95600.84;5053943;28;20193;-63
2022/03/12 10:16:14;;;;;;;18.00;13.77;;;;;;;17.38;31.34;95590.72;5053691;28;20233;-66
2022/03/12 10:18:41;;;;;;;16.03;13.57;;;;;;;15.71;32.16;95597.78;5053270;28;20249;-55
2022/03/12 10:21:07;;;;;;;16.00;13.67;;;;;;;16.67;31.38;95590.53;5054339;28;20194;-61
2022/03/12 10:23:33;;;;;;;15.60;13.30;;;;;;;17.13;30.08;95589.94;5053713;28;20216;-61
2022/03/12 10:25:59;;;;;;;20.97;14.23;;;;;;;16.53;30.49;95590.91;5053881;28;20192;-60
2022/03/12 10:28:24;;;;;;;18.37;13.10;;;;;;;16.79;31.11;95587.00;5053725;28;20280;-61
2022/03/12 10:30:50;;;;;;;19.20;14.47;;;;;;;15.63;32.25;95604.63;5054203;28;20185;-63
2022/03/12 10:33:23;;;;;;;15.13;13.23;;;;;;;15.91;32.08;95589.38;5053529;28;20189;-60
2022/03/12 10:35:49;;;;;;;17.07;13.40;;;;;;;15.56;32.50;95595.78;5053733;28;20200;-63
2022/03/12 10:38:15;;;;;;;18.33;13.07;;;;;;;15.11;32.83;95595.63;5053489;28;20205;-46
2022/03/12 10:40:41;;;;;;;17.87;12.47;;;;;;;14.75;33.22;95594.06;5053488;28;20221;-44
2022/03/12 10:43:15;;;;;;;18.37;13.70;;;;;;;16.14;32.36;95583.69;5053459;28;20229;-44
2022/03/12 10:45:46;;;;;;;19.00;13.77;;;;;;;16.32;31.03;95584.72;5053612;28;20196;-45
2022/03/12 10:48:12;;;;;;;15.30;12.10;;;;;;;16.87;31.96;95582.84;5053919;28;20182;-48
2022/03/12 10:50:44;;;;;;;15.73;12.67;;;;;;;17.36;29.89;95579.34;5052890;28;20268;-48
2022/03/12 10:53:10;;;;;;;15.63;12.83;;;;;;;15.36;32.11;95584.84;5053735;28;20189;-46
2022/03/12 10:55:47;;;;;;;19.13;13.80;;;;;;;16.05;32.36;95589.03;5052902;28;20185;-45
2022/03/12 10:58:16;;;;;;;16.53;13.13;;;;;;;14.93;32.81;95575.22;5053680;28;20215;-43
2022/03/12 11:00:45;;;;;;;17.97;13.37;;;;;;;14.33;33.92;95575.69;5053474;28;20643;-44
2022/03/12 11:03:14;;;;;;;18.40;13.43;;;;;;;14.70;34.02;95578.84;5068921;28;20239;-46
2022/03/12 11:05:43;;;;;;;17.00;13.30;;;;;;;14.52;33.37;95586.69;5053336;28;20189;-46
2022/03/12 11:08:16;;;;;;;18.50;14.27;;;;;;;15.57;33.06;95578.84;5053717;28;20239;-46
2022/03/12 11:10:59;;;;;;;18.63;14.40;;;;;;;15.35;32.97;95579.75;5052865;28;20196;-46
2022/03/12 11:13:40;;;;;;;17.93;13.37;;;;;;;15.00;32.57;95586.81;5053430;28;20189;-61
2022/03/12 11:16:24;;;;;;;17.67;13.90;;;;;;;14.61;33.37;95589.63;5053094;28;20185;-59
2022/03/12 11:18:52;;;;;;;17.33;13.53;;;;;;;14.17;34.49;95579.09;5052952;28;20196;-62
2022/03/12 11:21:37;;;;;;;18.50;13.83;;;;;;;14.83;33.83;95576.97;5052721;28;20205;-63